createdAt,value
2023-04-16T00:01:54.753Z,21.90
2023-04-16T00:04:21.634Z,19.35
2023-04-16T00:06:48.288Z,18.23
2023-04-16T00:09:15.044Z,15.10
2023-04-16T00:11:41.727Z,13.10
2023-04-16T00:14:08.472Z,14.27
2023-04-16T00:16:35.165Z,14.85
2023-04-16T00:19:01.871Z,12.07
2023-04-16T00:21:28.543Z,12.15
2023-04-16T00:23:55.222Z,13.27
2023-04-16T00:26:21.848Z,13.02
2023-04-16T00:28:49.624Z,13.32
2023-04-16T00:31:16.379Z,14.48
2023-04-16T00:33:43.086Z,14.55
2023-04-16T00:36:09.794Z,6.28
2023-04-16T00:38:36.842Z,0.10
2023-04-16T00:41:03.597Z,0.10
2023-04-16T00:43:31.642Z,0.10
2023-04-16T00:45:58.752Z,0.10
2023-04-16T00:48:28.004Z,0.10
2023-04-16T00:50:55.501Z,0.10
2023-04-16T00:53:22.735Z,0.10
2023-04-16T00:55:49.445Z,0.10
2023-04-16T00:58:16.856Z,0.10
2023-04-16T01:00:43.485Z,0.10
2023-04-16T01:03:10.714Z,0.10
2023-04-16T01:05:37.595Z,0.10
2023-04-16T01:08:04.467Z,0.10
2023-04-16T01:10:31.220Z,0.10
2023-04-16T01:12:57.879Z,0.10
2023-04-16T01:15:24.514Z,0.10
2023-04-16T01:17:59.238Z,0.10
2023-04-16T01:20:25.987Z,0.10
2023-04-16T01:22:52.585Z,0.10
2023-04-16T01:25:19.231Z,0.10
2023-04-16T01:27:49.105Z,0.10
2023-04-16T01:30:15.882Z,0.10
2023-04-16T01:32:42.518Z,0.10
2023-04-16T01:35:09.249Z,0.10
2023-04-16T01:37:36.204Z,0.10
2023-04-16T01:42:57.934Z,0.10
2023-04-16T01:45:43.164Z,0.10
2023-04-16T01:48:09.808Z,0.10
2023-04-16T01:50:48.078Z,0.10
2023-04-16T01:53:14.660Z,0.10
2023-04-16T01:55:41.487Z,0.10
2023-04-16T01:58:10.892Z,0.10
2023-04-16T02:00:37.638Z,0.10
2023-04-16T02:03:04.664Z,0.10
2023-04-16T02:05:31.439Z,0.10
2023-04-16T02:07:58.157Z,0.10
2023-04-16T02:10:24.997Z,0.10
2023-04-16T02:12:51.625Z,0.10
2023-04-16T02:15:18.343Z,0.10
2023-04-16T02:18:05.522Z,0.10
2023-04-16T02:20:32.210Z,0.10
2023-04-16T02:22:58.913Z,0.10
2023-04-16T02:25:25.610Z,0.10
2023-04-16T02:27:52.224Z,0.10
2023-04-16T02:30:18.876Z,0.10
2023-04-16T02:32:45.552Z,0.10
2023-04-16T02:35:12.294Z,0.10
2023-04-16T02:37:40.765Z,0.10
2023-04-16T02:40:36.971Z,0.10
2023-04-16T02:43:03.706Z,0.10
2023-04-16T02:45:33.026Z,0.10
2023-04-16T02:48:00.036Z,0.10
2023-04-16T02:50:26.820Z,0.10
2023-04-16T02:52:53.598Z,0.10
2023-04-16T02:55:20.475Z,0.10
2023-04-16T02:57:47.126Z,0.10
2023-04-16T03:00:14.037Z,0.10
2023-04-16T03:02:54.142Z,0.22
2023-04-16T03:05:21.488Z,1.65
2023-04-16T03:07:50.488Z,0.10
2023-04-16T03:10:17.123Z,0.10
2023-04-16T03:12:43.791Z,0.10
2023-04-16T03:15:10.814Z,0.15
2023-04-16T03:17:37.456Z,0.10
2023-04-16T03:20:24.537Z,0.95
2023-04-16T03:22:52.298Z,0.10
2023-04-16T03:25:21.549Z,0.10
2023-04-16T03:27:48.286Z,0.10
2023-04-16T03:30:15.396Z,0.10
2023-04-16T03:32:42.624Z,0.40
2023-04-16T03:35:10.097Z,0.10
2023-04-16T03:37:36.747Z,0.10
2023-04-16T03:40:05.752Z,0.25
2023-04-16T03:42:32.467Z,0.10
2023-04-16T03:44:59.392Z,0.10
2023-04-16T03:47:26.115Z,0.10
2023-04-16T03:49:52.928Z,0.10
2023-04-16T03:52:19.760Z,0.10
2023-04-16T03:54:46.501Z,0.10
2023-04-16T03:57:13.264Z,0.30
2023-04-16T03:59:39.963Z,0.10
2023-04-16T04:02:06.746Z,0.10
2023-04-16T04:04:33.529Z,0.10
2023-04-16T04:07:00.296Z,0.10
2023-04-16T04:09:27.013Z,0.10
2023-04-16T04:11:54.093Z,0.10
2023-04-16T04:14:20.825Z,0.10
2023-04-16T04:16:47.718Z,0.10
2023-04-16T04:19:14.454Z,0.10
2023-04-16T04:21:41.240Z,0.10
2023-04-16T04:24:07.997Z,0.10
2023-04-16T04:26:34.720Z,0.10
2023-04-16T04:29:01.533Z,0.10
2023-04-16T04:31:28.304Z,0.10
2023-04-16T04:33:55.455Z,0.10
2023-04-16T04:36:22.140Z,0.10
2023-04-16T04:38:48.959Z,0.10
2023-04-16T04:41:15.693Z,0.10
2023-04-16T04:43:42.355Z,0.68
2023-04-16T04:46:09.041Z,0.10
2023-04-16T04:48:35.914Z,0.10
2023-04-16T04:51:14.296Z,0.10
2023-04-16T04:53:41.052Z,0.10
2023-04-16T04:56:12.268Z,0.10
2023-04-16T04:58:40.700Z,0.10
2023-04-16T05:01:07.450Z,0.10
2023-04-16T05:03:34.178Z,0.10
2023-04-16T05:06:00.990Z,0.30
2023-04-16T05:08:27.643Z,0.10
2023-04-16T05:10:54.301Z,0.10
2023-04-16T05:13:21.009Z,0.10
2023-04-16T05:15:47.780Z,0.10
2023-04-16T05:18:26.375Z,0.10
2023-04-16T05:20:53.048Z,0.35
2023-04-16T05:23:19.698Z,0.10
2023-04-16T05:25:46.369Z,0.30
2023-04-16T05:28:13.035Z,0.30
2023-04-16T05:30:39.713Z,0.10
2023-04-16T05:33:06.343Z,0.10
2023-04-16T05:35:32.974Z,0.10
2023-04-16T05:37:59.590Z,0.30
2023-04-16T05:40:35.341Z,0.10
2023-04-16T05:43:02.093Z,0.28
2023-04-16T05:45:28.817Z,0.10
2023-04-16T05:47:55.640Z,0.10
2023-04-16T05:50:22.377Z,0.10
2023-04-16T05:52:49.101Z,0.10
2023-04-16T05:55:15.867Z,0.10
2023-04-16T05:57:42.606Z,0.10
2023-04-16T06:00:09.593Z,0.10
2023-04-16T06:02:36.380Z,0.10
2023-04-16T06:05:03.239Z,0.10
2023-04-16T06:07:29.917Z,0.10
2023-04-16T06:09:56.624Z,0.30
2023-04-16T06:12:23.297Z,0.10
2023-04-16T06:14:49.959Z,0.10
2023-04-16T06:17:16.598Z,0.10
2023-04-16T06:19:43.269Z,0.10
2023-04-16T06:22:10.363Z,0.10
2023-04-16T06:24:37.088Z,0.50
2023-04-16T06:27:03.917Z,0.10
2023-04-16T06:29:41.972Z,0.10
2023-04-16T06:32:08.943Z,0.10
2023-04-16T06:34:36.054Z,0.10
2023-04-16T06:37:02.770Z,0.10
2023-04-16T06:39:29.491Z,0.20
2023-04-16T06:41:56.304Z,0.10
2023-04-16T06:44:22.943Z,0.10
2023-04-16T06:46:50.875Z,0.10
2023-04-16T06:49:17.616Z,0.10
2023-04-16T06:51:44.460Z,0.10
2023-04-16T06:54:13.784Z,0.63
2023-04-16T06:56:51.880Z,0.10
2023-04-16T06:59:18.568Z,0.10
2023-04-16T07:01:45.295Z,0.10
2023-04-16T07:04:12.578Z,0.10
2023-04-16T07:06:39.424Z,0.20
2023-04-16T07:09:06.123Z,0.10
2023-04-16T07:11:32.848Z,0.30
2023-04-16T07:13:59.558Z,0.10
2023-04-16T07:16:26.307Z,0.28
2023-04-16T07:18:52.993Z,0.30
2023-04-16T07:21:19.903Z,0.10
2023-04-16T07:23:46.741Z,0.10
2023-04-16T07:26:13.557Z,0.20
2023-04-16T07:28:43.312Z,0.10
2023-04-16T07:31:10.108Z,0.10
2023-04-16T07:33:36.772Z,0.10
2023-04-16T07:36:03.488Z,0.10
2023-04-16T07:38:30.393Z,1.55
2023-04-16T07:40:57.124Z,0.20
2023-04-16T07:43:23.747Z,0.10
2023-04-16T07:45:56.061Z,0.10
2023-04-16T07:50:50.146Z,0.10
2023-04-16T07:53:17.017Z,0.10
2023-04-16T07:55:43.719Z,0.10
2023-04-16T07:58:10.739Z,0.10
2023-04-16T08:00:37.746Z,0.10
2023-04-16T08:03:04.728Z,0.10
2023-04-16T08:05:31.563Z,0.15
2023-04-16T08:07:58.393Z,0.20
2023-04-16T08:10:25.097Z,0.10
2023-04-16T08:12:51.854Z,0.73
2023-04-16T08:15:18.664Z,0.22
2023-04-16T08:18:07.005Z,0.10
2023-04-16T08:20:33.837Z,0.10
2023-04-16T08:23:00.620Z,0.30
2023-04-16T08:25:27.352Z,0.28
2023-04-16T08:27:54.036Z,0.10
2023-04-16T08:30:21.973Z,0.10
2023-04-16T08:32:50.145Z,0.10
2023-04-16T08:35:17.284Z,0.10
2023-04-16T08:37:44.070Z,0.10
2023-04-16T08:40:11.095Z,0.17
2023-04-16T08:42:53.674Z,0.30
2023-04-16T08:45:20.797Z,0.10
2023-04-16T08:47:49.217Z,0.10
2023-04-16T08:50:17.637Z,0.52
2023-04-16T08:52:58.077Z,0.10
2023-04-16T08:55:39.894Z,0.10
2023-04-16T08:58:18.452Z,0.10
2023-04-16T09:00:46.346Z,0.30
2023-04-16T09:03:13.569Z,0.10
2023-04-16T09:05:41.692Z,0.40
2023-04-16T09:08:08.612Z,0.10
2023-04-16T09:10:35.395Z,0.10
2023-04-16T09:13:02.100Z,0.20
2023-04-16T09:15:29.522Z,0.10
2023-04-16T09:17:59.428Z,0.10
2023-04-16T09:20:32.091Z,0.10
2023-04-16T09:22:58.820Z,0.10
2023-04-16T09:25:25.930Z,0.10
2023-04-16T09:27:52.868Z,0.25
2023-04-16T09:30:24.434Z,0.10
2023-04-16T09:32:52.825Z,0.10
2023-04-16T09:35:20.451Z,0.25
2023-04-16T09:37:57.560Z,1.33
2023-04-16T09:40:30.624Z,0.10
2023-04-16T09:42:58.763Z,0.20
2023-04-16T09:45:25.621Z,0.10
2023-04-16T09:47:52.380Z,0.10
2023-04-16T09:50:20.314Z,0.10
2023-04-16T09:52:51.453Z,0.10
2023-04-16T09:55:23.673Z,0.10
2023-04-16T09:57:59.893Z,0.13
2023-04-16T10:00:28.584Z,0.10
2023-04-16T10:03:06.025Z,0.20
2023-04-16T10:05:32.981Z,0.57
2023-04-16T10:08:02.867Z,0.10
2023-04-16T10:10:30.564Z,0.10
2023-04-16T10:12:58.048Z,0.10
2023-04-16T10:15:25.174Z,0.10
2023-04-16T10:17:52.692Z,1.35
2023-04-16T10:20:19.877Z,0.40
2023-04-16T10:22:46.578Z,0.10
2023-04-16T10:25:13.506Z,0.15
2023-04-16T10:27:41.448Z,0.10
2023-04-16T10:30:10.748Z,0.10
2023-04-16T10:32:38.369Z,0.10
2023-04-16T10:35:06.226Z,0.10
2023-04-16T10:37:33.079Z,0.10
2023-04-16T10:39:59.989Z,0.10
2023-04-16T10:42:27.383Z,0.10
2023-04-16T10:44:54.145Z,0.10
2023-04-16T10:47:25.374Z,0.70
2023-04-16T10:49:52.241Z,0.10
2023-04-16T10:52:19.053Z,0.10
2023-04-16T10:54:47.770Z,0.10
2023-04-16T10:57:19.610Z,0.10
2023-04-16T10:59:49.203Z,0.20
2023-04-16T11:02:17.900Z,0.10
2023-04-16T11:04:46.661Z,0.10
2023-04-16T11:07:19.605Z,0.10
2023-04-16T11:10:07.146Z,0.10
2023-04-16T11:12:46.412Z,0.10
2023-04-16T11:15:19.531Z,1.05
2023-04-16T11:17:48.235Z,0.10
2023-04-16T11:20:22.997Z,0.20
2023-04-16T11:22:51.463Z,0.10
2023-04-16T11:25:24.797Z,0.10
2023-04-16T11:27:52.254Z,0.10
2023-04-16T11:30:27.722Z,0.20
2023-04-16T11:32:54.620Z,0.20
2023-04-16T11:35:21.450Z,0.10
2023-04-16T11:37:51.044Z,0.10
2023-04-16T11:40:17.767Z,0.10
2023-04-16T11:42:44.591Z,0.10
2023-04-16T11:45:12.260Z,0.10
2023-04-16T11:47:53.337Z,0.10
2023-04-16T11:50:21.467Z,0.10
2023-04-16T11:52:48.838Z,0.10
2023-04-16T11:55:16.057Z,0.10
2023-04-16T11:57:42.859Z,0.10
2023-04-16T12:00:19.158Z,1.85
2023-04-16T12:02:55.372Z,0.10
2023-04-16T12:05:34.866Z,0.10
2023-04-16T12:08:09.525Z,0.10
2023-04-16T12:10:38.219Z,0.10
2023-04-16T12:13:17.478Z,0.10
2023-04-16T12:15:51.215Z,0.10
2023-04-16T12:18:20.164Z,0.10
2023-04-16T12:20:47.427Z,0.38
2023-04-16T12:23:24.519Z,0.10
2023-04-16T12:25:52.078Z,0.10
2023-04-16T12:28:36.556Z,0.10
2023-04-16T12:31:04.199Z,0.10
2023-04-16T12:33:31.293Z,0.10
2023-04-16T12:35:58.155Z,0.10
2023-04-16T12:38:26.235Z,0.10
2023-04-16T12:40:56.710Z,0.20
2023-04-16T12:43:23.970Z,0.10
2023-04-16T12:45:50.975Z,0.10
2023-04-16T12:48:17.673Z,0.10
2023-04-16T12:50:44.715Z,0.10
2023-04-16T12:53:11.863Z,0.10
2023-04-16T12:55:38.633Z,0.10
2023-04-16T12:58:05.278Z,0.10
2023-04-16T13:00:32.108Z,0.20
2023-04-16T13:02:58.881Z,0.10
2023-04-16T13:05:26.344Z,0.10
2023-04-16T13:07:53.043Z,0.10
2023-04-16T13:10:21.977Z,0.10
2023-04-16T13:12:48.905Z,0.10
2023-04-16T13:15:15.765Z,0.10
2023-04-16T13:17:42.466Z,0.20
2023-04-16T13:20:09.946Z,0.10
2023-04-16T13:22:36.773Z,0.10
2023-04-16T13:25:06.064Z,0.10
2023-04-16T13:27:32.714Z,0.10
2023-04-16T13:29:59.485Z,0.57
2023-04-16T13:32:26.427Z,0.10
2023-04-16T13:34:53.163Z,0.10
2023-04-16T13:37:19.855Z,0.00
2023-04-16T13:39:47.298Z,0.10
2023-04-16T13:42:14.003Z,0.10
2023-04-16T13:44:41.008Z,0.10
2023-04-16T13:47:08.106Z,0.10
2023-04-16T13:49:36.015Z,0.10
2023-04-16T13:52:03.275Z,0.10
2023-04-16T13:54:30.050Z,0.40
2023-04-16T13:56:56.935Z,0.10
2023-04-16T13:59:23.684Z,0.20
2023-04-16T14:01:51.074Z,0.10
2023-04-16T14:04:17.889Z,0.10
2023-04-16T14:06:44.661Z,0.10
2023-04-16T14:09:11.388Z,0.10
2023-04-16T14:11:38.211Z,0.10
2023-04-16T14:14:05.178Z,0.10
2023-04-16T14:16:34.326Z,0.10
2023-04-16T14:19:01.031Z,0.25
2023-04-16T14:21:27.787Z,0.10
2023-04-16T14:23:54.572Z,0.10
2023-04-16T14:26:21.448Z,0.10
2023-04-16T14:28:48.172Z,0.10
2023-04-16T14:31:14.869Z,0.10
2023-04-16T14:33:41.675Z,0.35
2023-04-16T14:36:08.564Z,0.10
2023-04-16T14:38:35.525Z,0.10
2023-04-16T14:41:02.386Z,0.10
2023-04-16T14:43:29.160Z,0.10
2023-04-16T14:45:58.153Z,0.10
2023-04-16T14:48:24.815Z,0.10
2023-04-16T14:50:51.678Z,0.10
2023-04-16T14:53:18.993Z,0.10
2023-04-16T14:55:45.777Z,0.10
2023-04-16T14:58:12.632Z,0.10
2023-04-16T15:00:39.253Z,0.20
2023-04-16T15:03:06.716Z,0.52
2023-04-16T15:05:34.836Z,0.10
2023-04-16T15:08:02.078Z,0.10
2023-04-16T15:10:28.836Z,0.10
2023-04-16T15:12:55.726Z,0.10
2023-04-16T15:15:22.501Z,0.10
2023-04-16T15:17:50.996Z,0.10
2023-04-16T15:20:18.416Z,0.10
2023-04-16T15:22:45.191Z,0.10
2023-04-16T15:25:11.868Z,0.10
2023-04-16T15:27:38.669Z,0.10
2023-04-16T15:30:06.537Z,0.10
2023-04-16T15:32:33.275Z,0.10
2023-04-16T15:35:00.512Z,0.10
2023-04-16T15:37:27.180Z,0.10
2023-04-16T15:39:53.909Z,0.10
2023-04-16T15:42:20.730Z,0.10
2023-04-16T15:44:47.551Z,0.10
2023-04-16T15:47:14.342Z,0.10
2023-04-16T15:49:41.131Z,0.10
2023-04-16T15:52:08.250Z,0.10
2023-04-16T15:54:34.941Z,0.10
2023-04-16T15:57:01.606Z,0.10
2023-04-16T15:59:28.688Z,0.40
2023-04-16T16:01:55.826Z,0.10
2023-04-16T16:04:23.360Z,0.10
2023-04-16T16:06:50.789Z,0.17
2023-04-16T16:09:17.644Z,0.10
2023-04-16T16:11:47.610Z,0.32
2023-04-16T16:14:15.386Z,0.10
2023-04-16T16:16:43.457Z,0.35
2023-04-16T16:19:10.725Z,0.20
2023-04-16T16:21:37.640Z,0.10
2023-04-16T16:24:04.319Z,0.10
2023-04-16T16:26:30.990Z,0.10
2023-04-16T16:28:57.698Z,0.10
2023-04-16T16:31:24.654Z,0.15
2023-04-16T16:33:51.374Z,0.10
2023-04-16T16:36:18.197Z,0.10
2023-04-16T16:38:47.183Z,0.10
2023-04-16T16:41:13.832Z,0.10
2023-04-16T16:43:40.518Z,0.52
2023-04-16T16:46:07.432Z,0.10
2023-04-16T16:48:34.247Z,0.10
2023-04-16T16:51:01.135Z,0.15
2023-04-16T16:53:36.909Z,0.10
2023-04-16T16:56:03.731Z,0.10
2023-04-16T16:58:30.429Z,0.10
2023-04-16T17:00:57.274Z,0.13
2023-04-16T17:03:24.046Z,0.10
2023-04-16T17:05:50.793Z,0.50
2023-04-16T17:08:17.488Z,0.17
2023-04-16T17:10:44.423Z,0.10
2023-04-16T17:13:13.630Z,0.10
2023-04-16T17:15:40.600Z,0.15
2023-04-16T17:18:07.364Z,1.38
2023-04-16T17:20:34.028Z,0.10
2023-04-16T17:23:01.075Z,0.10
2023-04-16T17:25:27.724Z,0.10
2023-04-16T17:27:54.397Z,0.20
2023-04-16T17:30:23.554Z,0.10
2023-04-16T17:32:50.434Z,0.20
2023-04-16T17:35:17.159Z,0.20
2023-04-16T17:37:43.828Z,0.63
2023-04-16T17:40:12.623Z,0.40
2023-04-16T17:42:39.346Z,0.10
2023-04-16T17:45:06.722Z,0.35
2023-04-16T17:47:37.451Z,0.10
2023-04-16T17:50:05.066Z,0.10
2023-04-16T17:52:31.915Z,0.30
2023-04-16T17:55:01.354Z,1.45
2023-04-16T17:57:28.330Z,0.10
2023-04-16T17:59:55.402Z,0.20
2023-04-16T18:02:22.319Z,0.20
2023-04-16T18:04:49.391Z,0.45
2023-04-16T18:07:16.288Z,0.10
2023-04-16T18:09:43.103Z,0.10
2023-04-16T18:12:09.889Z,0.10
2023-04-16T18:14:38.825Z,0.10
2023-04-16T18:17:06.706Z,0.10
2023-04-16T18:19:33.551Z,0.40
2023-04-16T18:22:00.638Z,0.10
2023-04-16T18:24:27.426Z,0.50
2023-04-16T18:26:55.328Z,0.20
2023-04-16T18:29:24.762Z,0.22
2023-04-16T18:31:55.732Z,0.20
2023-04-16T18:34:22.838Z,0.20
2023-04-16T18:36:49.485Z,0.90
2023-04-16T18:39:16.414Z,0.38
2023-04-16T18:41:47.523Z,0.10
2023-04-16T18:44:16.010Z,0.20
2023-04-16T18:46:42.682Z,0.10
2023-04-16T18:49:09.633Z,0.10
2023-04-16T18:51:36.488Z,0.10
2023-04-16T18:54:03.364Z,0.10
2023-04-16T18:56:31.048Z,0.10
2023-04-16T18:58:57.660Z,0.22
2023-04-16T19:01:24.433Z,0.10
2023-04-16T19:03:51.104Z,0.30
2023-04-16T19:06:17.898Z,0.10
2023-04-16T19:08:48.027Z,0.10
2023-04-16T19:11:14.757Z,0.43
2023-04-16T19:13:41.398Z,0.25
2023-04-16T19:16:11.380Z,1.38
2023-04-16T19:18:38.972Z,0.10
2023-04-16T19:21:07.043Z,0.10
2023-04-16T19:23:33.804Z,0.10
2023-04-16T19:26:01.504Z,0.30
2023-04-16T19:28:28.521Z,0.20
2023-04-16T19:30:55.263Z,0.52
2023-04-16T19:33:21.952Z,0.13
2023-04-16T19:35:48.893Z,0.10
2023-04-16T19:38:15.592Z,0.10
2023-04-16T19:40:46.936Z,0.15
2023-04-16T19:43:13.813Z,0.20
2023-04-16T19:45:44.209Z,0.10
2023-04-16T19:48:11.358Z,0.65
2023-04-16T19:50:42.163Z,0.35
2023-04-16T19:53:18.078Z,0.73
2023-04-16T19:55:44.908Z,0.10
2023-04-16T19:58:17.381Z,0.10
2023-04-16T20:00:44.169Z,0.10
2023-04-16T20:03:10.959Z,0.10
2023-04-16T20:05:37.749Z,0.20
2023-04-16T20:08:04.596Z,0.25
2023-04-16T20:10:31.528Z,0.20
2023-04-16T20:12:58.515Z,0.10
2023-04-16T20:15:25.265Z,0.40
2023-04-16T20:17:52.421Z,0.10
2023-04-16T20:20:19.287Z,0.32
2023-04-16T20:22:46.059Z,0.10
2023-04-16T20:25:14.274Z,0.10
2023-04-16T20:27:41.032Z,0.10
2023-04-16T20:30:08.319Z,0.10
2023-04-16T20:32:35.234Z,1.10
2023-04-16T20:35:01.940Z,0.10
2023-04-16T20:37:29.106Z,0.10
2023-04-16T20:39:56.121Z,0.43
2023-04-16T20:42:23.278Z,0.10
2023-04-16T20:44:56.366Z,0.10
2023-04-16T20:47:23.742Z,0.10
2023-04-16T20:49:52.796Z,0.40
2023-04-16T20:52:20.150Z,0.10
2023-04-16T20:54:47.776Z,0.10
2023-04-16T20:57:14.654Z,0.10
2023-04-16T20:59:41.411Z,0.10
2023-04-16T21:02:08.248Z,0.20
2023-04-16T21:04:35.410Z,0.10
2023-04-16T21:07:04.203Z,0.10
2023-04-16T21:09:31.551Z,0.10
2023-04-16T21:11:58.460Z,0.10
2023-04-16T21:14:25.287Z,0.10
2023-04-16T21:16:52.149Z,0.47
2023-04-16T21:19:19.024Z,0.10
2023-04-16T21:21:45.901Z,0.10
2023-04-16T21:24:12.684Z,0.63
2023-04-16T21:26:39.489Z,0.20
2023-04-16T21:29:06.326Z,0.10
2023-04-16T21:31:33.138Z,0.13
2023-04-16T21:33:59.986Z,0.10
2023-04-16T21:36:27.686Z,0.10
2023-04-16T21:38:54.914Z,0.10
2023-04-16T21:41:21.679Z,0.10
2023-04-16T21:43:48.608Z,0.10
2023-04-16T21:46:15.402Z,0.15
2023-04-16T21:48:42.117Z,0.10
2023-04-16T21:51:10.007Z,0.65
2023-04-16T21:53:38.650Z,0.35
2023-04-16T21:56:06.153Z,0.10
2023-04-16T21:58:32.735Z,0.10
2023-04-16T22:00:59.450Z,0.10
2023-04-16T22:03:27.578Z,0.20
2023-04-16T22:06:00.754Z,0.10
2023-04-16T22:08:28.946Z,0.20
2023-04-16T22:10:59.862Z,0.10
2023-04-16T22:13:27.091Z,0.50
2023-04-16T22:15:55.644Z,0.10
2023-04-16T22:18:25.334Z,0.10
2023-04-16T22:20:54.598Z,0.25
2023-04-16T22:23:22.787Z,0.10
2023-04-16T22:25:49.482Z,0.10
2023-04-16T22:28:16.142Z,0.10
2023-04-16T22:30:42.886Z,0.17
2023-04-16T22:33:09.535Z,0.10
2023-04-16T22:35:36.247Z,0.73
2023-04-16T22:38:02.964Z,0.10
2023-04-16T22:40:33.831Z,0.10
2023-04-16T22:43:00.584Z,0.10
2023-04-16T22:45:27.346Z,0.55
2023-04-16T22:47:54.234Z,0.10
2023-04-16T22:50:22.451Z,0.65
2023-04-16T22:52:49.120Z,0.10
2023-04-16T22:55:15.992Z,0.10
2023-04-16T22:57:42.595Z,0.90
2023-04-16T23:00:15.505Z,0.10
2023-04-16T23:02:42.485Z,0.10
2023-04-16T23:05:14.780Z,0.10
2023-04-16T23:07:41.407Z,0.25
2023-04-16T23:10:08.726Z,0.10
2023-04-16T23:12:37.332Z,0.10
2023-04-16T23:15:06.311Z,0.10
2023-04-16T23:17:33.851Z,0.10
2023-04-16T23:20:00.741Z,0.20
2023-04-16T23:22:27.544Z,0.10
2023-04-16T23:24:54.236Z,0.10
2023-04-16T23:27:21.107Z,0.10
2023-04-16T23:29:47.723Z,0.17
2023-04-16T23:32:14.491Z,0.10
2023-04-16T23:34:41.981Z,0.43
2023-04-16T23:37:09.026Z,0.10
2023-04-16T23:39:35.786Z,0.10
2023-04-16T23:42:03.071Z,0.10
2023-04-16T23:44:29.721Z,0.10
2023-04-16T23:46:56.512Z,0.10
2023-04-16T23:49:23.444Z,0.20
2023-04-16T23:51:50.212Z,0.10
2023-04-16T23:54:17.237Z,0.10
2023-04-16T23:56:43.873Z,0.10
2023-04-16T23:59:11.151Z,0.10
